createdAt,value
2023-04-02T00:01:37.510Z,101476.66
2023-04-02T00:04:14.847Z,101486.25
2023-04-02T00:06:40.594Z,101489.81
2023-04-02T00:08:46.014Z,101498.56
2023-04-02T00:10:55.493Z,101499.41
2023-04-02T00:13:05.991Z,101505.53
2023-04-02T00:15:18.560Z,101503.81
2023-04-02T00:17:25.567Z,101507.38
2023-04-02T00:19:40.432Z,101510.03
2023-04-02T00:21:49.674Z,101512.59
2023-04-02T00:23:57.469Z,101519.63
2023-04-02T00:26:05.072Z,101525.75
2023-04-02T00:28:10.130Z,101509.19
2023-04-02T00:30:18.898Z,101528.41
2023-04-02T00:32:27.792Z,101529.28
2023-04-02T00:34:36.734Z,101531.06
2023-04-02T00:36:42.177Z,101538.00
2023-04-02T00:38:48.794Z,101534.56
2023-04-02T00:40:55.837Z,101538.06
2023-04-02T00:43:04.600Z,101544.97
2023-04-02T00:45:20.470Z,101546.72
2023-04-02T00:47:30.856Z,101552.88
2023-04-02T00:49:39.791Z,101561.50
2023-04-02T00:51:49.596Z,101561.53
2023-04-02T00:53:57.656Z,101571.09
2023-04-02T00:56:04.640Z,101570.31
2023-04-02T00:58:20.476Z,101565.19
2023-04-02T01:00:30.256Z,101572.16
2023-04-02T01:02:38.613Z,101577.38
2023-04-02T01:04:44.791Z,101578.25
2023-04-02T01:06:53.626Z,101590.41
2023-04-02T01:09:20.104Z,101592.13
2023-04-02T01:11:40.482Z,101590.34
2023-04-02T01:14:00.364Z,101593.84
2023-04-02T01:16:14.334Z,101597.34
2023-04-02T01:18:31.885Z,101602.56
2023-04-02T01:21:05.120Z,101606.97
2023-04-02T01:23:17.192Z,101613.03
2023-04-02T01:25:28.663Z,101616.50
2023-04-02T01:27:41.686Z,101616.50
2023-04-02T01:29:52.230Z,101622.63
2023-04-02T01:32:00.633Z,101621.78
2023-04-02T01:34:10.155Z,101628.75
2023-04-02T01:36:21.051Z,101632.22
2023-04-02T01:38:33.107Z,101637.44
2023-04-02T01:40:43.989Z,101633.13
2023-04-02T01:42:55.973Z,101641.81
2023-04-02T01:45:10.554Z,101643.56
2023-04-02T01:47:17.774Z,101639.25
2023-04-02T01:49:25.316Z,101643.59
2023-04-02T01:51:33.274Z,101647.94
2023-04-02T01:53:38.159Z,101646.19
2023-04-02T01:55:46.215Z,101657.50
2023-04-02T01:57:56.300Z,101658.34
2023-04-02T02:00:13.734Z,101666.19
2023-04-02T02:02:19.982Z,101672.31
2023-04-02T02:04:25.394Z,101678.38
2023-04-02T02:06:31.594Z,101679.28
2023-04-02T02:08:41.904Z,101684.50
2023-04-02T02:10:52.310Z,101681.88
2023-04-02T02:13:00.539Z,101682.72
2023-04-02T02:15:16.411Z,101690.59
2023-04-02T02:17:26.766Z,101693.22
2023-04-02T02:19:35.894Z,101702.75
2023-04-02T02:21:45.016Z,101697.59
2023-04-02T02:23:49.873Z,101701.06
2023-04-02T02:25:57.074Z,101707.16
2023-04-02T02:28:06.255Z,101708.03
2023-04-02T02:30:20.020Z,101712.41
2023-04-02T02:32:28.317Z,101715.91
2023-04-02T02:34:40.091Z,101719.44
2023-04-02T02:36:50.975Z,101729.84
2023-04-02T02:39:01.349Z,101726.38
2023-04-02T02:41:10.578Z,101733.34
2023-04-02T02:43:17.768Z,101735.09
2023-04-02T02:45:30.801Z,101747.28
2023-04-02T02:47:39.238Z,101754.22
2023-04-02T02:49:46.689Z,101750.75
2023-04-02T02:51:56.714Z,101752.50
2023-04-02T02:54:06.211Z,101754.25
2023-04-02T02:56:13.935Z,101763.81
2023-04-02T02:58:23.724Z,101764.69
2023-04-02T03:00:32.461Z,101766.44
2023-04-02T03:02:40.773Z,101771.63
2023-04-02T03:04:50.940Z,101776.84
2023-04-02T03:07:00.276Z,101779.47
2023-04-02T03:09:28.078Z,101789.88
2023-04-02T03:11:40.205Z,101789.91
2023-04-02T03:13:49.580Z,101795.13
2023-04-02T03:16:12.903Z,101806.44
2023-04-02T03:18:28.940Z,101801.22
2023-04-02T03:20:40.856Z,101809.94
2023-04-02T03:22:53.897Z,101815.13
2023-04-02T03:25:03.846Z,101812.56
2023-04-02T03:27:16.214Z,101816.88
2023-04-02T03:29:25.900Z,101823.88
2023-04-02T03:31:39.784Z,101819.53
2023-04-02T03:33:49.108Z,101824.72
2023-04-02T03:36:01.066Z,101833.41
2023-04-02T03:38:13.740Z,101836.88
2023-04-02T03:40:23.334Z,101845.56
2023-04-02T03:42:30.360Z,101843.81
2023-04-02T03:44:43.234Z,101856.88
2023-04-02T03:46:57.467Z,101866.41
2023-04-02T03:49:05.924Z,101866.44
2023-04-02T03:51:17.488Z,101878.59
2023-04-02T03:53:26.337Z,101882.94
2023-04-02T03:55:36.803Z,101890.75
2023-04-02T03:57:51.424Z,101898.59
2023-04-02T04:00:02.640Z,101895.97
2023-04-02T04:02:19.484Z,101896.84
2023-04-02T04:04:28.060Z,101903.81
2023-04-02T04:06:36.004Z,101909.88
2023-04-02T04:08:48.123Z,101915.09
2023-04-02T04:10:55.493Z,101920.28
2023-04-02T04:13:06.766Z,101918.56
2023-04-02T04:15:19.149Z,101925.50
2023-04-02T04:17:34.890Z,101921.16
2023-04-02T04:19:45.984Z,101928.97
2023-04-02T04:21:58.778Z,101942.00
2023-04-02T04:24:06.826Z,101936.81
2023-04-02T04:26:25.105Z,101949.81
2023-04-02T04:28:41.273Z,101948.94
2023-04-02T04:30:55.276Z,101957.63
2023-04-02T04:33:09.291Z,101958.47
2023-04-02T04:35:24.423Z,101955.91
2023-04-02T04:37:36.754Z,101955.88
2023-04-02T04:39:45.956Z,101973.22
2023-04-02T04:41:52.762Z,101977.56
2023-04-02T04:44:05.128Z,101969.75
2023-04-02T04:46:15.110Z,101991.47
2023-04-02T04:48:29.235Z,101986.25
2023-04-02T04:50:39.179Z,101986.19
2023-04-02T04:52:46.530Z,101987.94
2023-04-02T04:54:52.715Z,101999.22
2023-04-02T04:57:06.664Z,102000.94
2023-04-02T04:59:20.868Z,102000.94
2023-04-02T05:01:32.043Z,102003.53
2023-04-02T05:03:47.992Z,102014.81
2023-04-02T05:05:53.610Z,102020.88
2023-04-02T05:08:04.276Z,102023.44
2023-04-02T05:10:18.626Z,102030.38
2023-04-02T05:12:35.472Z,102039.03
2023-04-02T05:14:49.015Z,102035.53
2023-04-02T05:17:02.855Z,102055.47
2023-04-02T05:19:17.015Z,102055.50
2023-04-02T05:21:31.024Z,102052.00
2023-04-02T05:23:45.074Z,102065.00
2023-04-02T05:26:02.653Z,102067.63
2023-04-02T05:28:15.104Z,102080.56
2023-04-02T05:30:49.581Z,102078.00
2023-04-02T05:33:00.604Z,102083.22
2023-04-02T05:35:11.549Z,102091.88
2023-04-02T05:37:20.655Z,102084.97
2023-04-02T05:39:27.217Z,102095.38
2023-04-02T05:41:39.338Z,102097.97
2023-04-02T05:43:49.063Z,102103.13
2023-04-02T05:45:57.807Z,102098.81
2023-04-02T05:48:17.187Z,102111.84
2023-04-02T05:50:32.740Z,102105.75
2023-04-02T05:52:42.625Z,102110.06
2023-04-02T05:54:51.869Z,102117.00
2023-04-02T05:57:04.651Z,102123.94
2023-04-02T05:59:14.102Z,102127.41
2023-04-02T06:01:27.528Z,102135.19
2023-04-02T06:03:45.099Z,102144.59
2023-04-02T06:05:54.855Z,102143.75
2023-04-02T06:08:06.773Z,102161.09
2023-04-02T06:10:20.749Z,102161.88
2023-04-02T06:12:34.426Z,102176.59
2023-04-02T06:14:41.175Z,102180.84
2023-04-02T06:16:48.658Z,102186.91
2023-04-02T06:18:53.904Z,102193.75
2023-04-02T06:21:01.508Z,102192.88
2023-04-02T06:23:16.386Z,102198.06
2023-04-02T06:25:27.753Z,102204.09
2023-04-02T06:27:41.299Z,102213.63
2023-04-02T06:29:48.800Z,102215.34
2023-04-02T06:32:00.285Z,102219.66
2023-04-02T06:34:08.919Z,102222.31
2023-04-02T06:36:16.459Z,102227.47
2023-04-02T06:38:26.426Z,102237.91
2023-04-02T06:40:43.967Z,102237.00
2023-04-02T06:42:56.521Z,102247.25
2023-04-02T06:45:01.645Z,102240.34
2023-04-02T06:47:13.298Z,102246.41
2023-04-02T06:49:26.366Z,102256.06
2023-04-02T06:51:44.113Z,102264.69
2023-04-02T06:53:50.611Z,102262.91
2023-04-02T06:55:59.921Z,102261.09
2023-04-02T06:58:04.934Z,102267.97
2023-04-02T07:00:33.252Z,102274.06
2023-04-02T07:02:43.914Z,102277.34
2023-04-02T07:04:50.917Z,102277.56
2023-04-02T07:06:58.642Z,102293.13
2023-04-02T07:09:05.811Z,102288.00
2023-04-02T07:11:21.000Z,102295.75
2023-04-02T07:13:27.836Z,102307.00
2023-04-02T07:15:33.058Z,102306.09
2023-04-02T07:17:40.982Z,102328.34
2023-04-02T07:19:49.816Z,102323.97
2023-04-02T07:21:54.989Z,102331.00
2023-04-02T07:24:02.683Z,102324.00
2023-04-02T07:26:11.333Z,102331.88
2023-04-02T07:28:16.997Z,102340.56
2023-04-02T07:30:26.176Z,102342.19
2023-04-02T07:32:31.117Z,102346.16
2023-04-02T07:34:40.960Z,102360.06
2023-04-02T07:36:48.911Z,102352.47
2023-04-02T07:38:56.146Z,102355.84
2023-04-02T07:41:09.665Z,102363.69
2023-04-02T07:43:16.898Z,102367.22
2023-04-02T07:45:22.861Z,102372.41
2023-04-02T07:47:29.230Z,102371.66
2023-04-02T07:49:35.700Z,102372.53
2023-04-02T07:51:41.399Z,102374.22
2023-04-02T07:53:50.542Z,102383.88
2023-04-02T07:56:05.912Z,102393.53
2023-04-02T07:58:16.694Z,102389.22
2023-04-02T08:00:26.928Z,102394.41
2023-04-02T08:02:37.913Z,102386.47
2023-04-02T08:04:42.920Z,102397.06
2023-04-02T08:06:50.049Z,102390.19
2023-04-02T08:08:57.321Z,102392.03
2023-04-02T08:11:04.762Z,102408.56
2023-04-02T08:13:12.250Z,102418.78
2023-04-02T08:15:25.540Z,102412.00
2023-04-02T08:17:31.625Z,102420.72
2023-04-02T08:19:53.824Z,102430.25
2023-04-02T08:22:04.270Z,102427.69
2023-04-02T08:24:20.558Z,102438.00
2023-04-02T08:26:28.059Z,102440.59
2023-04-02T08:28:46.843Z,102448.41
2023-04-02T08:30:56.732Z,102457.03
2023-04-02T08:33:05.569Z,102463.06
2023-04-02T08:35:13.428Z,102462.34
2023-04-02T08:37:23.317Z,102470.91
2023-04-02T08:39:33.897Z,102470.81
2023-04-02T08:41:50.451Z,102469.91
2023-04-02T08:44:19.525Z,102469.13
2023-04-02T08:46:29.821Z,102471.84
2023-04-02T08:48:39.098Z,102478.66
2023-04-02T08:50:48.982Z,102480.50
2023-04-02T08:53:02.959Z,102470.22
2023-04-02T08:55:32.864Z,102498.63
2023-04-02T08:57:53.607Z,102494.25
2023-04-02T09:00:11.135Z,102499.56
2023-04-02T09:02:39.401Z,102505.72
2023-04-02T09:04:45.771Z,102504.78
2023-04-02T09:06:59.277Z,102498.75
2023-04-02T09:09:15.135Z,102517.00
2023-04-02T09:11:27.850Z,102517.94
2023-04-02T09:13:37.902Z,102523.13
2023-04-02T09:15:42.942Z,102538.06
2023-04-02T09:17:54.088Z,102520.78
2023-04-02T09:20:05.809Z,102526.06
2023-04-02T09:22:24.177Z,102521.28
2023-04-02T09:24:30.396Z,102521.34
2023-04-02T09:26:37.185Z,102529.06
2023-04-02T09:28:44.957Z,102536.19
2023-04-02T09:31:04.358Z,102536.19
2023-04-02T09:33:10.522Z,102541.59
2023-04-02T09:35:26.129Z,102544.72
2023-04-02T09:37:41.884Z,102559.84
2023-04-02T09:39:47.511Z,102554.31
2023-04-02T09:42:02.719Z,102550.34
2023-04-02T09:44:23.879Z,102553.25
2023-04-02T09:46:28.851Z,102554.19
2023-04-02T09:48:36.065Z,102556.25
2023-04-02T09:50:41.849Z,102555.88
2023-04-02T09:52:50.609Z,102568.16
2023-04-02T09:55:22.042Z,102572.38
2023-04-02T09:57:28.307Z,102569.97
2023-04-02T09:59:37.812Z,102571.75
2023-04-02T10:01:44.379Z,102570.25
2023-04-02T10:03:49.636Z,102571.47
2023-04-02T10:06:10.600Z,102577.75
2023-04-02T10:08:23.947Z,102588.34
2023-04-02T10:10:35.274Z,102588.38
2023-04-02T10:12:49.940Z,102581.47
2023-04-02T10:14:59.699Z,102579.81
2023-04-02T10:17:20.327Z,102591.16
2023-04-02T10:19:35.557Z,102596.31
2023-04-02T10:21:45.349Z,102584.19
2023-04-02T10:23:56.551Z,102592.00
2023-04-02T10:26:21.909Z,102598.81
2023-04-02T10:28:48.748Z,102599.94
2023-04-02T10:31:06.941Z,102606.94
2023-04-02T10:33:21.665Z,102611.31
2023-04-02T10:35:53.825Z,102615.63
2023-04-02T10:38:50.009Z,102611.31
2023-04-02T10:41:08.581Z,102621.72
2023-04-02T10:43:57.832Z,102621.72
2023-04-02T10:46:12.975Z,102628.75
2023-04-02T10:48:29.480Z,102630.50
2023-04-02T10:50:41.333Z,102628.72
2023-04-02T10:52:54.128Z,102638.25
2023-04-02T10:55:08.117Z,102640.84
2023-04-02T10:57:25.524Z,102648.78
2023-04-02T10:59:37.135Z,102636.47
2023-04-02T11:01:49.164Z,102636.50
2023-04-02T11:04:02.936Z,102644.22
2023-04-02T11:06:16.508Z,102646.06
2023-04-02T11:08:25.986Z,102654.00
2023-04-02T11:10:37.061Z,102644.31
2023-04-02T11:12:46.702Z,102654.00
2023-04-02T11:14:53.586Z,102643.47
2023-04-02T11:17:08.144Z,102652.25
2023-04-02T11:19:26.633Z,102650.47
2023-04-02T11:21:57.256Z,102659.16
2023-04-02T11:24:09.788Z,102655.59
2023-04-02T11:26:45.017Z,102657.28
2023-04-02T11:28:49.909Z,102649.34
2023-04-02T11:30:58.551Z,102652.56
2023-04-02T11:33:41.389Z,102652.72
2023-04-02T11:39:01.863Z,102659.78
2023-04-02T11:41:38.408Z,102658.09
2023-04-02T11:43:54.662Z,102661.56
2023-04-02T11:46:09.801Z,102669.47
2023-04-02T11:48:31.734Z,102657.25
2023-04-02T11:50:39.587Z,102655.41
2023-04-02T11:52:57.588Z,102657.09
2023-04-02T11:55:39.600Z,102657.06
2023-04-02T11:57:59.357Z,102665.63
2023-04-02T12:00:23.670Z,102661.97
2023-04-02T12:02:34.518Z,102681.06
2023-04-02T12:04:58.635Z,102668.09
2023-04-02T12:07:36.207Z,102695.16
2023-04-02T12:09:55.385Z,102692.59
2023-04-02T12:12:19.059Z,102695.97
2023-04-02T12:14:54.941Z,102698.97
2023-04-02T12:17:32.172Z,102700.03
2023-04-02T12:19:46.315Z,102703.69
2023-04-02T12:21:57.037Z,102708.09
2023-04-02T12:24:04.802Z,102705.13
2023-04-02T12:26:38.966Z,102699.97
2023-04-02T12:28:47.696Z,102703.31
2023-04-02T12:31:15.343Z,102703.09
2023-04-02T12:34:05.256Z,102705.28
2023-04-02T12:36:22.800Z,102696.31
2023-04-02T12:38:41.996Z,102697.13
2023-04-02T12:41:10.638Z,102706.34
2023-04-02T12:43:58.315Z,102701.53
2023-04-02T12:46:48.765Z,102705.53
2023-04-02T12:49:25.493Z,102706.72
2023-04-02T12:51:31.118Z,102692.91
2023-04-02T12:53:54.973Z,102719.41
2023-04-02T12:56:17.036Z,102712.28
2023-04-02T12:58:35.274Z,102717.44
2023-04-02T13:01:03.124Z,102715.84
2023-04-02T13:06:16.074Z,102717.16
2023-04-02T13:08:34.634Z,102722.78
2023-04-02T13:10:55.607Z,102725.31
2023-04-02T13:13:19.515Z,102720.78
2023-04-02T13:15:47.546Z,102733.81
2023-04-02T13:18:10.938Z,102732.56
2023-04-02T13:20:44.018Z,102730.44
2023-04-02T13:24:20.226Z,102734.00
2023-04-02T13:27:20.926Z,102726.75
2023-04-02T13:29:48.264Z,102728.13
2023-04-02T13:32:50.795Z,102726.47
2023-04-02T13:38:18.377Z,102726.91
2023-04-02T13:40:36.200Z,102733.03
2023-04-02T13:51:37.438Z,102738.47
2023-04-02T13:57:43.443Z,102744.88
2023-04-02T14:00:38.550Z,102744.75
2023-04-02T14:03:14.374Z,102746.63
2023-04-02T14:05:30.659Z,102750.63
2023-04-02T14:07:51.154Z,102755.66
2023-04-02T14:10:22.974Z,102758.34
2023-04-02T14:12:41.518Z,102769.22
2023-04-02T14:15:03.516Z,102770.94
2023-04-02T14:17:17.058Z,102762.50
2023-04-02T14:19:38.081Z,102770.25
2023-04-02T14:21:56.601Z,102767.50
2023-04-02T14:24:16.516Z,102770.38
2023-04-02T14:26:33.581Z,102778.16
2023-04-02T14:28:49.510Z,102779.31
2023-04-02T14:31:01.953Z,102780.38
2023-04-02T14:33:13.020Z,102779.25
2023-04-02T14:35:24.621Z,102781.75
2023-04-02T14:37:37.098Z,102786.19
2023-04-02T14:39:47.687Z,102784.03
2023-04-02T14:42:01.075Z,102787.53
2023-04-02T14:44:10.863Z,102792.41
2023-04-02T14:46:15.685Z,102794.84
2023-04-02T14:48:31.774Z,102794.34
2023-04-02T14:50:42.152Z,102791.81
2023-04-02T14:52:54.005Z,102801.47
2023-04-02T14:55:05.784Z,102796.63
2023-04-02T14:57:24.000Z,102796.72
2023-04-02T14:59:38.345Z,102796.44
2023-04-02T15:09:20.143Z,102798.00
2023-04-02T15:28:27.341Z,102817.75
2023-04-02T15:45:31.270Z,102812.00
2023-04-02T15:52:31.650Z,102817.84
2023-04-02T16:33:39.991Z,102865.94
2023-04-02T16:35:54.956Z,102861.63
2023-04-02T16:38:08.164Z,102865.13
2023-04-02T16:40:19.656Z,102864.25
2023-04-02T16:42:36.674Z,102865.16
2023-04-02T16:44:54.237Z,102881.81
2023-04-02T16:47:13.725Z,102881.88
2023-04-02T16:49:32.745Z,102883.59
2023-04-02T16:51:46.412Z,102876.59
2023-04-02T16:54:02.192Z,102888.84
2023-04-02T16:56:24.499Z,102888.88
2023-04-02T16:58:46.847Z,102890.63
2023-04-02T17:00:56.587Z,102902.91
2023-04-02T17:03:12.594Z,102902.00
2023-04-02T17:05:33.076Z,102903.78
2023-04-02T17:07:43.834Z,102899.41
2023-04-02T17:09:52.498Z,102911.66
2023-04-02T17:12:06.712Z,102918.63
2023-04-02T17:14:22.257Z,102919.53
2023-04-02T17:16:35.386Z,102921.28
2023-04-02T17:21:38.309Z,102920.38
2023-04-02T17:23:56.342Z,102927.41
2023-04-02T17:26:09.011Z,102931.78
2023-04-02T17:28:18.390Z,102937.88
2023-04-02T17:30:38.695Z,102944.91
2023-04-02T17:32:43.794Z,102944.00
2023-04-02T17:34:48.926Z,102952.75
2023-04-02T17:37:08.290Z,102952.75
2023-04-02T17:39:23.829Z,102955.38
2023-04-02T17:41:38.417Z,102954.50
2023-04-02T17:43:51.072Z,102958.84
2023-04-02T17:45:59.424Z,102960.59
2023-04-02T17:48:08.892Z,102971.94
2023-04-02T17:50:55.309Z,102971.91
2023-04-02T17:53:19.476Z,102978.88
2023-04-02T17:55:34.429Z,102982.34
2023-04-02T17:57:52.375Z,102991.94
2023-04-02T18:00:05.916Z,102997.16
2023-04-02T18:02:28.291Z,102982.28
2023-04-02T18:04:43.507Z,102993.63
2023-04-02T18:06:59.217Z,102995.38
2023-04-02T18:09:25.511Z,102999.72
2023-04-02T18:11:38.762Z,103003.19
2023-04-02T18:13:45.232Z,103004.91
2023-04-02T18:16:05.207Z,103006.63
2023-04-02T18:18:20.224Z,103009.22
2023-04-02T18:20:33.188Z,103017.94
2023-04-02T18:22:41.723Z,103017.06
2023-04-02T18:25:19.399Z,103024.88
2023-04-02T18:27:49.210Z,103027.44
2023-04-02T18:30:03.158Z,103026.63
2023-04-02T18:32:32.459Z,103033.50
2023-04-02T18:34:52.704Z,103040.44
2023-04-02T18:37:11.044Z,103047.38
2023-04-02T18:39:23.627Z,103045.59
2023-04-02T18:41:47.340Z,103049.03
2023-04-02T18:44:09.737Z,103049.00
2023-04-02T18:46:25.370Z,103052.44
2023-04-02T18:48:43.874Z,103052.44
2023-04-02T18:50:51.889Z,103054.16
2023-04-02T18:52:56.811Z,103054.13
2023-04-02T18:55:08.675Z,103065.38
2023-04-02T18:57:17.287Z,103074.94
2023-04-02T18:59:38.657Z,103072.28
2023-04-02T19:01:46.784Z,103075.66
2023-04-02T19:04:03.848Z,103075.66
2023-04-02T19:06:12.820Z,103081.69
2023-04-02T19:08:23.118Z,103085.16
2023-04-02T19:10:33.966Z,103085.22
2023-04-02T19:12:38.925Z,103082.47
2023-04-02T19:14:50.236Z,103085.88
2023-04-02T19:17:05.104Z,103091.09
2023-04-02T19:19:18.406Z,103092.78
2023-04-02T19:21:36.916Z,103096.22
2023-04-02T19:23:58.910Z,103099.63
2023-04-02T19:26:09.645Z,103101.31
2023-04-02T19:28:21.768Z,103099.47
2023-04-02T19:30:41.297Z,103107.28
2023-04-02T19:32:55.710Z,103108.97
2023-04-02T19:35:13.383Z,103113.31
2023-04-02T19:37:23.774Z,103113.38
2023-04-02T19:39:46.981Z,103120.31
2023-04-02T19:41:56.122Z,103124.59
2023-04-02T19:44:01.174Z,103121.94
2023-04-02T19:46:09.198Z,103120.22
2023-04-02T19:48:17.862Z,103128.66
2023-04-02T19:50:22.813Z,103133.03
2023-04-02T19:52:27.561Z,103133.84
2023-04-02T19:54:32.451Z,103133.75
2023-04-02T19:56:38.226Z,103130.25
2023-04-02T19:58:43.174Z,103140.78
2023-04-02T20:00:48.104Z,103146.63
2023-04-02T20:02:55.599Z,103142.22
2023-04-02T20:05:00.519Z,103144.84
2023-04-02T20:07:05.865Z,103146.50
2023-04-02T20:09:12.647Z,103151.66
2023-04-02T20:11:17.690Z,103149.03
2023-04-02T20:13:24.913Z,103153.38
2023-04-02T20:15:29.673Z,103156.03
2023-04-02T20:17:34.582Z,103156.78
2023-04-02T20:19:42.472Z,103164.63
2023-04-02T20:21:47.473Z,103160.19
2023-04-02T20:23:55.970Z,103166.13
2023-04-02T20:26:00.865Z,103169.59
2023-04-02T20:28:05.791Z,103170.38
2023-04-02T20:30:16.225Z,103176.34
2023-04-02T20:32:21.196Z,103178.06
2023-04-02T20:34:29.269Z,103177.13
2023-04-02T20:36:36.944Z,103184.97
2023-04-02T20:38:42.625Z,103185.84
2023-04-02T20:40:53.065Z,103193.63
2023-04-02T20:55:39.384Z,103204.06
2023-04-02T20:57:44.188Z,103206.66
2023-04-02T20:59:49.128Z,103208.41
2023-04-02T21:01:54.093Z,103205.66
2023-04-02T21:04:00.757Z,103211.84
2023-04-02T21:06:05.674Z,103209.22
2023-04-02T21:08:10.847Z,103213.53
2023-04-02T21:10:16.897Z,103221.31
2023-04-02T21:12:25.163Z,103222.06
2023-04-02T21:14:31.626Z,103221.25
2023-04-02T21:16:36.847Z,103219.50
2023-04-02T21:26:18.958Z,103229.72
2023-04-02T21:41:50.160Z,103255.00
2023-04-02T21:43:55.606Z,103247.16
2023-04-02T21:46:01.724Z,103248.16
2023-04-02T21:48:06.794Z,103241.97
2023-04-02T21:50:12.946Z,103250.63
2023-04-02T21:52:18.624Z,103247.94
2023-04-02T21:54:23.811Z,103246.25
2023-04-02T21:56:30.788Z,103241.91
2023-04-02T21:58:38.505Z,103244.34
2023-04-02T22:00:43.794Z,103245.22
2023-04-02T22:02:48.788Z,103240.78
2023-04-02T22:04:55.258Z,103239.94
2023-04-02T22:07:00.358Z,103249.59
2023-04-02T22:09:09.539Z,103249.59
2023-04-02T22:11:16.376Z,103254.75
2023-04-02T22:13:21.183Z,103253.81
2023-04-02T22:15:28.534Z,103257.25
2023-04-02T22:17:33.440Z,103249.44
2023-04-02T22:19:38.299Z,103251.06
2023-04-02T22:21:43.975Z,103251.94
2023-04-02T22:23:49.577Z,103251.88
2023-04-02T22:25:54.378Z,103256.19
2023-04-02T22:27:59.446Z,103257.88
2023-04-02T22:30:07.312Z,103257.69
2023-04-02T22:32:14.816Z,103250.63
2023-04-02T22:34:19.894Z,103254.16
2023-04-02T22:36:26.096Z,103257.69
2023-04-02T22:38:31.893Z,103251.56
2023-04-02T22:40:37.358Z,103246.22
2023-04-02T22:42:46.802Z,103253.78
2023-04-02T22:44:52.749Z,103246.84
2023-04-02T22:46:57.623Z,103254.66
2023-04-02T22:49:05.037Z,103248.53
2023-04-02T22:51:11.715Z,103255.31
2023-04-02T22:54:29.542Z,103250.81
2023-04-02T23:06:17.634Z,103262.75
2023-04-02T23:09:11.966Z,103260.03
2023-04-02T23:14:56.829Z,103266.69
2023-04-02T23:21:23.227Z,103275.31
2023-04-02T23:35:56.773Z,103280.81
2023-04-02T23:40:53.896Z,103274.81
2023-04-02T23:43:00.927Z,103279.88
2023-04-02T23:45:12.599Z,103277.94
2023-04-02T23:47:17.337Z,103279.66
2023-04-02T23:49:22.600Z,103279.44
2023-04-02T23:51:29.140Z,103282.03
2023-04-02T23:53:33.896Z,103285.44
2023-04-02T23:55:41.118Z,103284.28
2023-04-02T23:57:48.837Z,103284.44
2023-04-02T23:59:54.995Z,103296.56
